createdAt,value
2023-12-24T00:01:23.038Z,0.65
2023-12-24T00:03:50.443Z,0.10
2023-12-24T00:06:17.783Z,0.13
2023-12-24T00:08:45.103Z,0.30
2023-12-24T00:11:12.379Z,0.08
2023-12-24T00:13:39.695Z,0.00
2023-12-24T00:16:07.111Z,0.08
2023-12-24T00:18:34.490Z,0.10
2023-12-24T00:21:02.680Z,0.00
2023-12-24T00:23:30.071Z,0.00
2023-12-24T00:25:57.434Z,0.10
2023-12-24T00:28:24.734Z,0.00
2023-12-24T00:30:53.127Z,0.03
2023-12-24T00:33:20.594Z,0.13
2023-12-24T00:35:49.038Z,0.00
2023-12-24T00:38:16.461Z,0.00
2023-12-24T00:40:43.801Z,0.00
2023-12-24T00:43:11.682Z,0.00
2023-12-24T00:45:39.733Z,0.08
2023-12-24T00:48:07.756Z,0.00
2023-12-24T00:50:35.255Z,0.00
2023-12-24T00:53:05.998Z,0.00
2023-12-24T00:55:33.331Z,0.00
2023-12-24T00:58:00.707Z,0.10
2023-12-24T01:00:27.997Z,0.00
2023-12-24T01:02:55.308Z,0.10
2023-12-24T01:05:22.674Z,0.20
2023-12-24T01:07:49.997Z,0.00
2023-12-24T01:10:17.250Z,0.25
2023-12-24T01:12:45.484Z,0.10
2023-12-24T01:15:12.793Z,0.10
2023-12-24T01:17:40.192Z,0.03
2023-12-24T01:20:17.716Z,0.00
2023-12-24T01:22:45.291Z,0.10
2023-12-24T01:25:12.669Z,0.05
2023-12-24T01:27:40.007Z,0.00
2023-12-24T01:30:08.637Z,0.17
2023-12-24T01:32:35.986Z,0.13
2023-12-24T01:35:04.415Z,0.25
2023-12-24T01:37:31.715Z,0.13
2023-12-24T01:39:58.977Z,0.32
2023-12-24T01:42:26.296Z,0.30
2023-12-24T01:44:53.602Z,0.45
2023-12-24T01:47:21.458Z,0.20
2023-12-24T01:49:50.583Z,0.20
2023-12-24T01:52:18.832Z,0.20
2023-12-24T01:54:48.420Z,0.35
2023-12-24T01:57:16.882Z,0.13
2023-12-24T01:59:44.323Z,0.40
2023-12-24T02:02:13.491Z,0.50
2023-12-24T02:07:09.757Z,0.70
2023-12-24T02:09:37.004Z,0.40
2023-12-24T02:12:08.018Z,0.20
2023-12-24T02:14:35.399Z,0.43
2023-12-24T02:17:04.930Z,0.20
2023-12-24T02:19:32.477Z,0.50
2023-12-24T02:21:59.747Z,0.55
2023-12-24T02:24:27.651Z,0.82
2023-12-24T02:27:00.523Z,0.60
2023-12-24T02:29:41.751Z,0.80
2023-12-24T02:32:16.282Z,0.70
2023-12-24T02:34:45.961Z,0.60
2023-12-24T02:37:14.335Z,0.63
2023-12-24T02:39:43.150Z,0.77
2023-12-24T02:42:10.736Z,1.10
2023-12-24T02:44:38.994Z,0.52
2023-12-24T02:47:06.530Z,1.00
2023-12-24T02:49:33.853Z,0.43
2023-12-24T02:52:01.138Z,0.50
2023-12-24T02:54:28.557Z,0.90
2023-12-24T02:56:55.818Z,0.80
2023-12-24T02:59:23.783Z,0.75
2023-12-24T03:01:51.006Z,1.20
2023-12-24T03:04:18.263Z,1.02
2023-12-24T03:06:45.514Z,0.80
2023-12-24T03:09:13.476Z,1.10
2023-12-24T03:11:40.878Z,0.95
2023-12-24T03:14:08.212Z,1.13
2023-12-24T03:16:35.633Z,1.08
2023-12-24T03:19:02.929Z,1.17
2023-12-24T03:21:30.234Z,0.70
2023-12-24T03:23:57.505Z,0.60
2023-12-24T03:26:24.962Z,0.75
2023-12-24T03:28:52.848Z,1.20
2023-12-24T03:31:20.185Z,0.50
2023-12-24T03:33:47.596Z,0.85
2023-12-24T03:36:14.967Z,0.50
2023-12-24T03:38:42.346Z,0.55
2023-12-24T03:41:09.706Z,0.50
2023-12-24T03:43:37.079Z,0.30
2023-12-24T03:46:04.381Z,0.60
2023-12-24T03:48:33.719Z,0.38
2023-12-24T03:51:01.968Z,0.40
2023-12-24T03:53:29.917Z,0.30
2023-12-24T03:55:57.309Z,0.40
2023-12-24T03:58:24.590Z,0.40
2023-12-24T04:00:51.916Z,0.28
2023-12-24T04:03:19.251Z,0.30
2023-12-24T04:05:46.580Z,0.47
2023-12-24T04:08:15.237Z,0.40
2023-12-24T04:10:45.542Z,0.40
2023-12-24T04:13:14.963Z,0.22
2023-12-24T04:15:42.414Z,0.43
2023-12-24T04:18:10.518Z,0.40
2023-12-24T04:20:39.848Z,0.55
2023-12-24T04:23:07.438Z,1.33
2023-12-24T04:25:34.791Z,0.20
2023-12-24T04:28:02.595Z,0.30
2023-12-24T04:30:30.360Z,0.43
2023-12-24T04:33:00.359Z,0.30
2023-12-24T04:35:27.964Z,0.40
2023-12-24T04:37:55.227Z,0.30
2023-12-24T04:40:24.208Z,0.28
2023-12-24T04:42:52.142Z,0.40
2023-12-24T04:45:19.792Z,0.40
2023-12-24T04:47:47.387Z,0.40
2023-12-24T04:50:14.826Z,0.30
2023-12-24T04:52:42.754Z,0.50
2023-12-24T04:55:10.105Z,0.38
2023-12-24T04:57:37.417Z,0.30
2023-12-24T05:00:06.980Z,0.38
2023-12-24T05:02:34.431Z,0.47
2023-12-24T05:05:09.963Z,0.80
2023-12-24T05:07:37.533Z,0.52
2023-12-24T05:10:05.118Z,0.40
2023-12-24T05:12:34.815Z,0.50
2023-12-24T05:15:02.923Z,0.30
2023-12-24T05:17:31.236Z,0.55
2023-12-24T05:19:58.670Z,0.43
2023-12-24T05:22:26.352Z,0.47
2023-12-24T05:24:53.622Z,0.60
2023-12-24T05:27:20.890Z,0.60
2023-12-24T05:29:48.194Z,0.60
2023-12-24T05:32:15.489Z,0.40
2023-12-24T05:34:44.009Z,0.50
2023-12-24T05:37:11.516Z,0.77
2023-12-24T05:39:43.560Z,1.08
2023-12-24T05:42:10.933Z,0.77
2023-12-24T05:44:38.266Z,0.60
2023-12-24T05:47:05.811Z,0.82
2023-12-24T05:49:34.734Z,1.10
2023-12-24T05:52:06.132Z,1.08
2023-12-24T05:54:33.366Z,0.77
2023-12-24T05:57:00.631Z,0.75
2023-12-24T05:59:28.333Z,1.20
2023-12-24T06:01:55.581Z,0.68
2023-12-24T06:04:22.858Z,0.50
2023-12-24T06:06:50.126Z,0.80
2023-12-24T06:09:17.423Z,0.68
2023-12-24T06:11:44.714Z,0.52
2023-12-24T06:14:12.037Z,0.60
2023-12-24T06:16:39.315Z,0.30
2023-12-24T06:19:06.813Z,0.40
2023-12-24T06:21:34.234Z,0.30
2023-12-24T06:24:02.534Z,0.60
2023-12-24T06:26:29.785Z,0.60
2023-12-24T06:28:57.948Z,0.25
2023-12-24T06:31:25.304Z,0.10
2023-12-24T06:33:52.734Z,0.32
2023-12-24T06:36:20.043Z,0.30
2023-12-24T06:38:47.311Z,0.20
2023-12-24T06:41:14.625Z,0.10
2023-12-24T06:43:42.443Z,0.10
2023-12-24T06:46:13.628Z,0.20
2023-12-24T06:48:41.481Z,0.13
2023-12-24T06:51:09.172Z,0.20
2023-12-24T06:53:37.383Z,0.00
2023-12-24T06:56:05.506Z,0.00
2023-12-24T06:58:32.893Z,0.10
2023-12-24T07:01:00.185Z,0.00
2023-12-24T07:03:28.025Z,0.10
2023-12-24T07:05:55.684Z,0.00
2023-12-24T07:08:23.701Z,0.00
2023-12-24T07:10:51.077Z,0.15
2023-12-24T07:13:18.512Z,0.10
2023-12-24T07:15:45.815Z,0.10
2023-12-24T07:18:13.468Z,0.00
2023-12-24T07:20:40.884Z,0.10
2023-12-24T07:23:08.150Z,0.10
2023-12-24T07:25:35.408Z,0.25
2023-12-24T07:28:02.778Z,0.00
2023-12-24T07:30:30.682Z,0.00
2023-12-24T07:32:58.938Z,0.13
2023-12-24T07:35:26.732Z,0.00
2023-12-24T07:37:54.027Z,0.00
2023-12-24T07:40:21.291Z,0.00
2023-12-24T07:42:48.556Z,0.00
2023-12-24T07:45:15.838Z,0.00
2023-12-24T07:47:43.224Z,0.00
2023-12-24T07:50:10.771Z,0.10
2023-12-24T07:52:38.062Z,0.10
2023-12-24T07:55:05.702Z,0.00
2023-12-24T07:57:32.926Z,0.08
2023-12-24T08:00:00.294Z,0.10
2023-12-24T08:02:27.897Z,0.00
2023-12-24T08:04:56.535Z,0.00
2023-12-24T08:07:24.771Z,0.00
2023-12-24T08:09:52.349Z,0.10
2023-12-24T08:12:19.656Z,0.10
2023-12-24T08:14:46.953Z,0.00
2023-12-24T08:17:14.252Z,0.00
2023-12-24T08:19:41.587Z,0.00
2023-12-24T08:22:08.840Z,0.10
2023-12-24T08:24:36.089Z,0.10
2023-12-24T08:27:03.407Z,0.10
2023-12-24T08:29:32.610Z,0.10
2023-12-24T08:31:59.995Z,0.05
2023-12-24T08:34:27.906Z,0.00
2023-12-24T08:36:55.237Z,0.10
2023-12-24T08:39:22.510Z,0.13
2023-12-24T08:41:49.787Z,0.00
2023-12-24T08:44:17.500Z,0.30
2023-12-24T08:46:48.991Z,0.20
2023-12-24T08:49:17.185Z,0.10
2023-12-24T08:51:44.569Z,0.00
2023-12-24T08:54:11.851Z,0.00
2023-12-24T08:56:39.320Z,0.00
2023-12-24T08:59:08.687Z,0.22
2023-12-24T09:01:40.889Z,0.10
2023-12-24T09:04:08.419Z,0.00
2023-12-24T09:06:37.593Z,0.00
2023-12-24T09:09:05.222Z,0.00
2023-12-24T09:11:33.349Z,0.00
2023-12-24T09:14:00.664Z,0.00
2023-12-24T09:16:27.898Z,0.00
2023-12-24T09:18:55.243Z,0.00
2023-12-24T09:21:22.524Z,0.10
2023-12-24T09:23:49.776Z,0.00
2023-12-24T09:26:17.052Z,0.00
2023-12-24T09:28:44.390Z,0.00
2023-12-24T09:31:11.690Z,0.10
2023-12-24T09:33:39.107Z,0.00
2023-12-24T09:36:08.821Z,0.00
2023-12-24T09:38:37.607Z,0.00
2023-12-24T09:41:05.172Z,0.00
2023-12-24T09:43:34.565Z,0.00
2023-12-24T09:46:01.869Z,0.00
2023-12-24T09:48:29.196Z,0.00
2023-12-24T09:50:56.567Z,0.00
2023-12-24T09:53:23.863Z,0.70
2023-12-24T09:55:51.443Z,0.08
2023-12-24T09:58:18.938Z,0.00
2023-12-24T10:00:46.277Z,0.00
2023-12-24T10:03:13.575Z,0.00
2023-12-24T10:06:05.789Z,0.00
2023-12-24T10:08:33.227Z,0.17
2023-12-24T10:11:13.695Z,0.03
2023-12-24T10:13:41.586Z,0.10
2023-12-24T10:16:13.093Z,0.20
2023-12-24T10:18:53.420Z,0.00
2023-12-24T10:21:22.038Z,0.00
2023-12-24T10:23:49.445Z,0.00
2023-12-24T10:26:16.936Z,0.00
2023-12-24T10:28:57.977Z,0.00
2023-12-24T10:31:29.013Z,0.00
2023-12-24T10:34:06.869Z,0.00
2023-12-24T10:36:34.153Z,0.10
2023-12-24T10:39:13.904Z,0.00
2023-12-24T10:41:41.185Z,0.00
2023-12-24T10:44:08.510Z,0.00
2023-12-24T10:46:35.797Z,0.10
2023-12-24T10:49:03.116Z,0.00
2023-12-24T10:51:30.691Z,0.00
2023-12-24T10:53:58.914Z,0.00
2023-12-24T10:56:34.478Z,0.05
2023-12-24T10:59:17.766Z,0.00
2023-12-24T11:01:49.237Z,0.00
2023-12-24T11:04:48.223Z,0.00
2023-12-24T11:07:35.636Z,0.00
2023-12-24T11:10:04.777Z,0.00
2023-12-24T11:12:36.697Z,0.00
2023-12-24T11:15:11.272Z,0.00
2023-12-24T11:17:39.928Z,0.08
2023-12-24T11:20:20.521Z,1.13
2023-12-24T11:23:06.373Z,0.22
2023-12-24T11:25:37.567Z,0.40
2023-12-24T11:28:05.841Z,0.17
2023-12-24T11:30:51.552Z,2.05
2023-12-24T11:33:48.260Z,2.83
2023-12-24T11:36:19.896Z,1.75
2023-12-24T11:38:51.364Z,0.88
2023-12-24T11:41:23.885Z,0.65
2023-12-24T11:44:02.020Z,1.17
2023-12-24T11:46:31.027Z,1.40
2023-12-24T11:51:34.088Z,0.57
2023-12-24T11:54:04.817Z,0.20
2023-12-24T11:56:33.612Z,0.10
2023-12-24T11:59:02.970Z,0.00
2023-12-24T12:01:32.638Z,0.00
2023-12-24T12:04:04.771Z,0.00
2023-12-24T12:06:36.765Z,0.00
2023-12-24T12:09:11.071Z,0.00
2023-12-24T12:11:38.661Z,0.10
2023-12-24T12:14:06.339Z,0.13
2023-12-24T12:16:35.589Z,0.50
2023-12-24T12:19:03.079Z,1.20
2023-12-24T12:21:30.484Z,0.40
2023-12-24T12:23:57.796Z,0.05
2023-12-24T12:26:25.070Z,0.10
2023-12-24T12:28:52.341Z,0.20
2023-12-24T12:31:19.557Z,0.10
2023-12-24T12:33:49.744Z,0.10
2023-12-24T12:36:17.502Z,0.00
2023-12-24T12:38:44.889Z,0.10
2023-12-24T12:41:12.217Z,0.05
2023-12-24T12:43:39.499Z,0.00
2023-12-24T12:46:06.722Z,0.00
2023-12-24T12:48:34.164Z,0.73
2023-12-24T12:51:02.216Z,0.20
2023-12-24T12:53:29.664Z,0.57
2023-12-24T12:56:08.431Z,1.00
2023-12-24T12:58:36.329Z,1.33
2023-12-24T13:01:03.942Z,1.33
2023-12-24T13:03:36.786Z,0.50
2023-12-24T13:06:13.934Z,0.20
2023-12-24T13:08:41.389Z,0.20
2023-12-24T13:11:08.887Z,0.10
2023-12-24T13:13:36.170Z,0.08
2023-12-24T13:16:09.044Z,0.03
2023-12-24T13:18:37.819Z,0.00
2023-12-24T13:21:09.117Z,0.10
2023-12-24T13:23:36.675Z,0.03
2023-12-24T13:26:05.409Z,0.08
2023-12-24T13:28:34.640Z,0.00
2023-12-24T13:31:05.319Z,0.00
2023-12-24T13:33:32.719Z,0.00
2023-12-24T13:36:00.329Z,0.10
2023-12-24T13:38:28.413Z,0.47
2023-12-24T13:40:57.115Z,0.28
2023-12-24T13:43:24.439Z,0.30
2023-12-24T13:45:51.713Z,0.10
2023-12-24T13:48:19.346Z,0.52
2023-12-24T13:50:46.778Z,0.10
2023-12-24T13:53:24.002Z,0.10
2023-12-24T13:55:59.759Z,0.10
2023-12-24T13:58:27.912Z,0.30
2023-12-24T14:00:55.477Z,0.10
2023-12-24T14:03:25.002Z,0.15
2023-12-24T14:05:52.561Z,0.32
2023-12-24T14:08:22.334Z,0.00
2023-12-24T14:10:50.469Z,0.22
2023-12-24T14:13:18.056Z,0.00
2023-12-24T14:15:45.348Z,0.32
2023-12-24T14:18:12.814Z,0.20
2023-12-24T14:20:40.282Z,0.63
2023-12-24T14:23:09.351Z,0.47
2023-12-24T14:25:36.764Z,0.30
2023-12-24T14:28:04.597Z,0.03
2023-12-24T14:30:32.221Z,0.00
2023-12-24T14:33:00.499Z,0.10
2023-12-24T14:35:29.497Z,0.00
2023-12-24T14:37:56.922Z,0.00
2023-12-24T14:40:24.398Z,0.08
2023-12-24T14:42:52.525Z,0.08
2023-12-24T14:45:20.033Z,0.00
2023-12-24T14:47:47.520Z,0.57
2023-12-24T14:50:14.965Z,0.60
2023-12-24T14:52:42.230Z,0.60
2023-12-24T14:55:09.822Z,0.00
2023-12-24T14:57:37.487Z,0.05
2023-12-24T15:00:06.479Z,0.10
2023-12-24T15:02:33.823Z,0.00
2023-12-24T15:05:02.144Z,0.00
2023-12-24T15:07:29.656Z,0.10
2023-12-24T15:09:57.339Z,0.25
2023-12-24T15:12:24.764Z,0.30
2023-12-24T15:14:52.522Z,0.00
2023-12-24T15:17:20.029Z,0.05
2023-12-24T15:19:47.377Z,0.00
2023-12-24T15:22:14.896Z,0.00
2023-12-24T15:24:42.239Z,0.10
2023-12-24T15:27:09.761Z,0.00
2023-12-24T15:29:39.268Z,0.00
2023-12-24T15:32:07.361Z,0.00
2023-12-24T15:34:34.818Z,0.10
2023-12-24T15:37:02.514Z,0.00
2023-12-24T15:39:30.101Z,0.10
2023-12-24T15:41:58.350Z,0.20
2023-12-24T15:44:25.863Z,0.40
2023-12-24T15:46:53.560Z,0.28
2023-12-24T15:49:20.910Z,0.20
2023-12-24T15:51:48.190Z,0.03
2023-12-24T15:54:15.475Z,0.10
2023-12-24T15:56:43.037Z,0.20
2023-12-24T15:59:10.577Z,0.15
2023-12-24T16:01:44.498Z,0.10
2023-12-24T16:04:13.115Z,0.30
2023-12-24T16:06:41.307Z,0.20
2023-12-24T16:09:09.023Z,0.17
2023-12-24T16:11:37.411Z,0.20
2023-12-24T16:14:08.090Z,0.10
2023-12-24T16:16:36.277Z,0.10
2023-12-24T16:19:04.169Z,0.20
2023-12-24T16:21:36.081Z,0.10
2023-12-24T16:24:05.920Z,0.00
2023-12-24T16:26:34.819Z,0.20
2023-12-24T16:29:02.536Z,0.20
2023-12-24T16:31:29.837Z,0.20
2023-12-24T16:33:57.157Z,0.30
2023-12-24T16:36:25.458Z,0.32
2023-12-24T16:38:54.285Z,0.10
2023-12-24T16:41:21.869Z,0.10
2023-12-24T16:43:49.784Z,0.10
2023-12-24T16:46:17.350Z,0.20
2023-12-24T16:48:44.795Z,0.00
2023-12-24T16:51:19.882Z,0.10
2023-12-24T16:53:48.142Z,0.20
2023-12-24T16:56:15.668Z,0.30
2023-12-24T16:58:44.290Z,0.47
2023-12-24T17:01:11.860Z,0.20
2023-12-24T17:03:39.324Z,0.40
2023-12-24T17:06:10.247Z,0.10
2023-12-24T17:08:39.200Z,0.20
2023-12-24T17:13:34.545Z,0.08
2023-12-24T17:16:01.936Z,0.10
2023-12-24T17:18:32.837Z,0.00
2023-12-24T17:21:00.645Z,0.00
2023-12-24T17:23:27.929Z,0.00
2023-12-24T17:25:55.208Z,0.00
2023-12-24T17:28:22.481Z,0.00
2023-12-24T17:30:49.956Z,0.40
2023-12-24T17:33:17.875Z,0.30
2023-12-24T17:35:45.830Z,0.17
2023-12-24T17:38:14.345Z,0.10
2023-12-24T17:40:42.161Z,0.00
2023-12-24T17:43:10.344Z,0.10
2023-12-24T17:45:37.720Z,0.00
2023-12-24T17:48:13.559Z,0.10
2023-12-24T17:50:47.057Z,0.00
2023-12-24T17:53:14.865Z,0.10
2023-12-24T17:55:42.357Z,0.13
2023-12-24T17:58:10.365Z,0.30
2023-12-24T18:00:37.927Z,0.85
2023-12-24T18:03:05.455Z,1.50
2023-12-24T18:05:32.831Z,1.13
2023-12-24T18:08:00.180Z,1.42
2023-12-24T18:10:27.528Z,0.15
2023-12-24T18:12:54.942Z,0.10
2023-12-24T18:15:22.225Z,0.10
2023-12-24T18:17:49.656Z,0.08
2023-12-24T18:20:17.095Z,0.08
2023-12-24T18:22:44.483Z,0.10
2023-12-24T18:25:12.083Z,0.03
2023-12-24T18:27:39.335Z,0.10
2023-12-24T18:30:07.338Z,0.00
2023-12-24T18:32:34.746Z,0.10
2023-12-24T18:35:03.785Z,0.00
2023-12-24T18:39:58.265Z,0.10
2023-12-24T18:42:25.661Z,0.10
2023-12-24T18:44:53.208Z,0.00
2023-12-24T18:47:20.552Z,0.10
2023-12-24T18:49:47.919Z,0.05
2023-12-24T18:52:15.160Z,0.10
2023-12-24T18:54:45.767Z,0.10
2023-12-24T18:57:15.042Z,0.00
2023-12-24T18:59:43.220Z,0.00
2023-12-24T19:02:10.777Z,0.10
2023-12-24T19:04:38.221Z,0.00
2023-12-24T19:07:08.093Z,0.00
2023-12-24T19:09:35.780Z,0.00
2023-12-24T19:12:03.161Z,0.05
2023-12-24T19:14:30.551Z,0.10
2023-12-24T19:16:57.939Z,0.00
2023-12-24T19:19:25.387Z,0.00
2023-12-24T19:21:52.764Z,0.00
2023-12-24T19:24:23.147Z,0.30
2023-12-24T19:26:50.566Z,0.00
2023-12-24T19:29:17.898Z,0.00
2023-12-24T19:31:45.170Z,0.00
2023-12-24T19:34:12.505Z,0.05
2023-12-24T19:36:40.091Z,0.00
2023-12-24T19:39:07.385Z,0.00
2023-12-24T19:41:34.695Z,0.00
2023-12-24T19:44:08.253Z,0.00
2023-12-24T19:46:35.561Z,0.10
2023-12-24T19:49:03.101Z,0.00
2023-12-24T19:51:30.569Z,0.00
2023-12-24T19:53:57.988Z,0.00
2023-12-24T19:56:25.422Z,0.00
2023-12-24T19:58:54.149Z,0.00
2023-12-24T20:01:31.173Z,0.00
2023-12-24T20:04:03.537Z,0.00
2023-12-24T20:06:30.905Z,0.10
2023-12-24T20:08:58.502Z,0.00
2023-12-24T20:11:26.014Z,0.00
2023-12-24T20:13:53.591Z,0.00
2023-12-24T20:16:20.995Z,0.10
2023-12-24T20:18:48.282Z,0.10
2023-12-24T20:21:15.749Z,0.10
2023-12-24T20:23:43.510Z,0.00
2023-12-24T20:26:11.107Z,0.05
2023-12-24T20:28:38.407Z,0.00
2023-12-24T20:31:05.661Z,0.10
2023-12-24T20:33:34.444Z,0.00
2023-12-24T20:36:02.477Z,0.00
2023-12-24T20:38:31.405Z,0.00
2023-12-24T20:43:25.851Z,0.13
2023-12-24T20:45:53.332Z,0.00
2023-12-24T20:48:22.272Z,0.10
2023-12-24T20:50:49.753Z,0.10
2023-12-24T20:53:17.096Z,0.05
2023-12-24T20:55:44.491Z,0.00
2023-12-24T20:58:13.120Z,0.10
2023-12-24T21:00:40.476Z,0.00
2023-12-24T21:03:07.969Z,0.03
2023-12-24T21:05:38.661Z,0.15
2023-12-24T21:08:09.198Z,0.00
2023-12-24T21:10:36.553Z,0.10
2023-12-24T21:13:03.940Z,0.10
2023-12-24T21:15:31.319Z,0.15
2023-12-24T21:17:58.623Z,0.00
2023-12-24T21:20:25.993Z,0.10
2023-12-24T21:22:53.902Z,0.00
2023-12-24T21:25:21.404Z,0.00
2023-12-24T21:27:49.097Z,0.10
2023-12-24T21:30:16.405Z,0.08
2023-12-24T21:32:43.808Z,0.20
2023-12-24T21:35:11.113Z,0.05
2023-12-24T21:37:38.396Z,0.13
2023-12-24T21:40:07.801Z,0.20
2023-12-24T21:42:35.042Z,0.00
2023-12-24T21:45:02.389Z,0.20
2023-12-24T21:47:29.838Z,0.10
2023-12-24T21:49:58.448Z,0.20
2023-12-24T21:52:25.728Z,0.10
2023-12-24T21:54:53.056Z,0.20
2023-12-24T21:57:20.315Z,0.10
2023-12-24T21:59:47.643Z,0.10
2023-12-24T22:02:15.015Z,0.10
2023-12-24T22:04:42.347Z,0.10
2023-12-24T22:07:09.623Z,0.10
2023-12-24T22:09:36.889Z,0.00
2023-12-24T22:12:04.556Z,0.10
2023-12-24T22:14:31.889Z,0.10
2023-12-24T22:16:59.183Z,0.17
2023-12-24T22:19:26.697Z,0.10
2023-12-24T22:21:54.436Z,0.10
2023-12-24T22:24:24.687Z,0.20
2023-12-24T22:26:52.190Z,0.10
2023-12-24T22:29:19.616Z,0.10
2023-12-24T22:31:46.890Z,0.13
2023-12-24T22:34:14.380Z,0.17
2023-12-24T22:36:41.760Z,0.10
2023-12-24T22:39:10.018Z,0.10
2023-12-24T22:41:37.818Z,0.20
2023-12-24T22:44:05.205Z,0.13
2023-12-24T22:46:33.001Z,0.15
2023-12-24T22:49:00.334Z,0.22
2023-12-24T22:51:27.853Z,0.20
2023-12-24T22:53:55.201Z,0.20
2023-12-24T22:56:22.686Z,0.30
2023-12-24T22:58:49.951Z,0.20
2023-12-24T23:01:17.297Z,0.52
2023-12-24T23:03:44.585Z,0.13
2023-12-24T23:06:14.874Z,0.10
2023-12-24T23:08:43.619Z,0.10
2023-12-24T23:11:11.042Z,0.30
2023-12-24T23:13:38.372Z,0.52
2023-12-24T23:16:07.966Z,0.20
2023-12-24T23:18:35.615Z,0.20
2023-12-24T23:21:03.080Z,0.20
2023-12-24T23:23:30.727Z,0.20
2023-12-24T23:25:58.026Z,0.45
2023-12-24T23:28:25.704Z,0.93
2023-12-24T23:30:53.133Z,0.43
2023-12-24T23:33:20.917Z,0.40
2023-12-24T23:35:57.151Z,0.30
2023-12-24T23:38:29.750Z,0.30
2023-12-24T23:40:57.040Z,0.20
2023-12-24T23:43:24.437Z,0.32
2023-12-24T23:45:51.737Z,0.30
2023-12-24T23:48:20.209Z,0.40
2023-12-24T23:50:48.327Z,0.35
2023-12-24T23:53:15.622Z,0.40
2023-12-24T23:55:43.440Z,0.38
2023-12-24T23:58:10.732Z,0.50
